createdAt,value
2022-11-24T00:01:16.819Z,4.60
2022-11-24T00:03:45.812Z,4.60
2022-11-24T00:06:14.581Z,4.70
2022-11-24T00:08:43.347Z,4.70
2022-11-24T00:11:31.722Z,4.70
2022-11-24T00:13:59.193Z,4.70
2022-11-24T00:16:33.296Z,4.80
2022-11-24T00:19:01.997Z,4.70
2022-11-24T00:21:31.663Z,4.80
2022-11-24T00:23:59.095Z,4.80
2022-11-24T00:26:31.441Z,4.70
2022-11-24T00:29:03.287Z,4.70
2022-11-24T00:31:32.623Z,4.70
2022-11-24T00:34:05.503Z,4.70
2022-11-24T00:36:34.474Z,4.70
2022-11-24T00:39:04.560Z,4.70
2022-11-24T00:41:31.757Z,4.70
2022-11-24T00:43:58.902Z,4.80
2022-11-24T00:46:27.091Z,4.70
2022-11-24T00:48:54.400Z,4.80
2022-11-24T00:51:23.654Z,4.80
2022-11-24T00:53:50.676Z,4.80
2022-11-24T00:56:17.463Z,4.80
2022-11-24T00:58:44.323Z,4.80
2022-11-24T01:01:17.960Z,4.80
2022-11-24T01:03:45.487Z,4.90
2022-11-24T01:06:17.831Z,4.80
2022-11-24T01:08:45.469Z,4.80
2022-11-24T01:11:21.842Z,4.80
2022-11-24T01:13:51.725Z,4.80
2022-11-24T01:16:34.706Z,4.90
2022-11-24T01:19:01.743Z,4.80
2022-11-24T01:21:28.518Z,4.70
2022-11-24T01:23:55.359Z,4.60
2022-11-24T01:26:23.343Z,4.60
2022-11-24T01:28:54.909Z,4.60
2022-11-24T01:31:21.901Z,4.60
2022-11-24T01:33:49.001Z,4.60
2022-11-24T01:36:16.071Z,4.60
2022-11-24T01:38:42.953Z,4.60
2022-11-24T01:41:14.824Z,4.60
2022-11-24T01:43:43.650Z,4.50
2022-11-24T01:46:19.237Z,4.50
2022-11-24T01:49:08.413Z,4.70
2022-11-24T01:51:41.005Z,4.60
2022-11-24T01:54:22.592Z,4.60
2022-11-24T01:56:53.535Z,4.60
2022-11-24T01:59:21.820Z,4.70
2022-11-24T02:01:51.503Z,4.60
2022-11-24T02:04:22.884Z,4.60
2022-11-24T02:06:52.521Z,4.70
2022-11-24T02:09:42.220Z,4.70
2022-11-24T02:12:09.673Z,4.70
2022-11-24T02:14:39.175Z,4.70
2022-11-24T02:17:06.115Z,4.70
2022-11-24T02:19:51.317Z,4.70
2022-11-24T02:22:34.785Z,4.50
2022-11-24T02:25:05.909Z,4.60
2022-11-24T02:27:32.758Z,4.60
2022-11-24T02:29:59.683Z,4.50
2022-11-24T02:32:28.217Z,4.40
2022-11-24T02:35:06.037Z,4.50
2022-11-24T02:37:32.867Z,4.60
2022-11-24T02:39:59.734Z,4.50
2022-11-24T02:42:31.167Z,4.40
2022-11-24T02:45:00.607Z,4.60
2022-11-24T02:47:27.816Z,4.50
2022-11-24T02:49:54.838Z,4.60
2022-11-24T02:52:21.674Z,4.50
2022-11-24T02:54:48.457Z,4.50
2022-11-24T02:57:15.698Z,4.60
2022-11-24T02:59:42.552Z,4.60
2022-11-24T03:02:09.376Z,4.60
2022-11-24T03:04:36.591Z,4.50
2022-11-24T03:07:03.654Z,4.50
2022-11-24T03:09:30.716Z,4.60
2022-11-24T03:11:57.464Z,4.50
2022-11-24T03:14:24.344Z,4.40
2022-11-24T03:16:51.151Z,4.40
2022-11-24T03:19:17.951Z,4.50
2022-11-24T03:21:45.276Z,4.50
2022-11-24T03:24:12.049Z,4.50
2022-11-24T03:26:38.916Z,4.50
2022-11-24T03:29:05.839Z,4.50
2022-11-24T03:31:32.738Z,4.60
2022-11-24T03:33:59.709Z,4.60
2022-11-24T03:36:26.880Z,4.60
2022-11-24T03:38:53.757Z,4.50
2022-11-24T03:41:20.558Z,4.40
2022-11-24T03:43:47.408Z,4.50
2022-11-24T03:46:14.288Z,4.50
2022-11-24T03:48:41.172Z,4.50
2022-11-24T03:51:08.023Z,4.60
2022-11-24T03:53:34.796Z,4.70
2022-11-24T03:56:02.047Z,4.60
2022-11-24T03:58:29.967Z,4.50
2022-11-24T04:00:57.201Z,4.60
2022-11-24T04:03:24.591Z,4.60
2022-11-24T04:05:51.899Z,4.50
2022-11-24T04:08:19.086Z,4.50
2022-11-24T04:10:50.411Z,4.60
2022-11-24T04:13:18.841Z,4.60
2022-11-24T04:15:45.735Z,4.70
2022-11-24T04:18:13.154Z,4.70
2022-11-24T04:20:41.935Z,4.70
2022-11-24T04:23:10.141Z,4.60
2022-11-24T04:25:37.520Z,4.70
2022-11-24T04:28:05.019Z,4.60
2022-11-24T04:30:32.138Z,4.70
2022-11-24T04:32:58.972Z,4.70
2022-11-24T04:35:25.975Z,4.60
2022-11-24T04:37:52.924Z,4.60
2022-11-24T04:40:20.425Z,4.60
2022-11-24T04:42:56.739Z,4.60
2022-11-24T04:45:24.264Z,4.70
2022-11-24T04:47:51.302Z,4.70
2022-11-24T04:50:18.233Z,4.60
2022-11-24T04:52:45.506Z,4.50
2022-11-24T04:55:12.612Z,4.50
2022-11-24T04:57:39.614Z,4.40
2022-11-24T05:00:07.519Z,4.50
2022-11-24T05:02:34.430Z,4.50
2022-11-24T05:05:01.296Z,4.50
2022-11-24T05:07:28.242Z,4.50
2022-11-24T05:09:59.445Z,4.50
2022-11-24T05:12:29.479Z,4.50
2022-11-24T05:14:56.544Z,4.60
2022-11-24T05:17:23.328Z,4.60
2022-11-24T05:19:50.133Z,4.50
2022-11-24T05:22:16.974Z,4.50
2022-11-24T05:24:43.741Z,4.30
2022-11-24T05:27:11.108Z,4.20
2022-11-24T05:29:37.886Z,4.30
2022-11-24T05:32:04.944Z,4.30
2022-11-24T05:34:31.995Z,4.20
2022-11-24T05:37:00.040Z,4.30
2022-11-24T05:39:26.889Z,4.40
2022-11-24T05:41:53.691Z,4.40
2022-11-24T05:44:20.521Z,4.50
2022-11-24T05:46:47.367Z,4.40
2022-11-24T05:49:14.191Z,4.50
2022-11-24T05:51:41.170Z,4.30
2022-11-24T05:54:08.084Z,4.40
2022-11-24T05:56:34.948Z,4.40
2022-11-24T05:59:06.668Z,4.40
2022-11-24T06:01:36.393Z,4.30
2022-11-24T06:04:03.285Z,4.40
2022-11-24T06:06:30.048Z,4.50
2022-11-24T06:08:56.851Z,4.30
2022-11-24T06:11:23.644Z,4.40
2022-11-24T06:13:50.508Z,4.30
2022-11-24T06:16:17.484Z,4.30
2022-11-24T06:18:44.388Z,4.30
2022-11-24T06:21:12.034Z,4.30
2022-11-24T06:23:39.701Z,4.30
2022-11-24T06:26:07.014Z,4.30
2022-11-24T06:28:33.844Z,4.40
2022-11-24T06:31:02.497Z,4.30
2022-11-24T06:33:34.444Z,4.30
2022-11-24T06:36:03.333Z,4.30
2022-11-24T06:38:30.553Z,4.20
2022-11-24T06:41:16.764Z,4.30
2022-11-24T06:43:43.978Z,4.10
2022-11-24T06:46:11.926Z,4.10
2022-11-24T06:48:39.371Z,4.20
2022-11-24T06:51:08.399Z,4.00
2022-11-24T06:53:37.210Z,4.00
2022-11-24T06:56:09.459Z,4.00
2022-11-24T06:58:45.973Z,4.00
2022-11-24T07:01:32.882Z,4.10
2022-11-24T07:03:59.979Z,4.10
2022-11-24T07:06:27.019Z,4.10
2022-11-24T07:08:54.125Z,4.10
2022-11-24T07:11:23.601Z,4.20
2022-11-24T07:13:53.819Z,4.30
2022-11-24T07:16:26.422Z,4.30
2022-11-24T07:18:54.434Z,4.40
2022-11-24T07:21:23.806Z,4.40
2022-11-24T07:23:55.423Z,4.40
2022-11-24T07:26:23.406Z,4.40
2022-11-24T07:28:50.768Z,4.50
2022-11-24T07:31:21.359Z,4.50
2022-11-24T07:33:53.079Z,4.50
2022-11-24T07:36:20.263Z,4.50
2022-11-24T07:38:47.572Z,4.60
2022-11-24T07:41:16.185Z,4.90
2022-11-24T07:43:43.132Z,4.90
2022-11-24T07:46:12.572Z,4.90
2022-11-24T07:48:39.761Z,4.80
2022-11-24T07:51:07.260Z,4.80
2022-11-24T07:53:34.650Z,4.90
2022-11-24T07:56:03.615Z,4.90
2022-11-24T07:58:33.416Z,4.90
2022-11-24T08:01:08.267Z,4.80
2022-11-24T08:03:36.023Z,4.80
2022-11-24T08:08:49.795Z,4.80
2022-11-24T08:11:17.831Z,4.80
2022-11-24T08:13:44.965Z,4.80
2022-11-24T08:16:16.928Z,4.70
2022-11-24T08:18:44.595Z,4.80
2022-11-24T08:21:13.694Z,4.70
2022-11-24T08:23:40.880Z,4.70
2022-11-24T08:26:10.865Z,4.80
2022-11-24T08:28:37.759Z,4.80
2022-11-24T08:31:06.650Z,4.80
2022-11-24T08:33:33.655Z,4.80
2022-11-24T08:36:12.252Z,4.70
2022-11-24T08:38:39.445Z,4.80
2022-11-24T08:41:12.046Z,4.60
2022-11-24T08:43:39.484Z,4.70
2022-11-24T08:46:09.853Z,4.70
2022-11-24T08:48:37.212Z,4.70
2022-11-24T08:51:15.355Z,4.60
2022-11-24T08:53:42.855Z,4.60
2022-11-24T08:56:11.634Z,4.60
2022-11-24T08:58:39.061Z,4.60
2022-11-24T09:01:13.197Z,4.70
2022-11-24T09:03:46.343Z,4.60
2022-11-24T09:06:18.344Z,4.70
2022-11-24T09:08:45.266Z,4.70
2022-11-24T09:11:13.930Z,4.70
2022-11-24T09:13:40.823Z,4.70
2022-11-24T09:16:10.341Z,4.70
2022-11-24T09:18:37.782Z,4.60
2022-11-24T09:21:13.279Z,4.60
2022-11-24T09:23:40.616Z,4.70
2022-11-24T09:26:19.351Z,4.60
2022-11-24T09:28:46.606Z,4.70
2022-11-24T09:31:15.779Z,4.70
2022-11-24T09:33:43.669Z,4.70
2022-11-24T09:36:11.271Z,4.60
2022-11-24T09:38:38.377Z,4.60
2022-11-24T09:41:33.145Z,4.70
2022-11-24T09:44:18.738Z,4.70
2022-11-24T09:47:23.115Z,4.70
2022-11-24T09:50:05.189Z,4.70
2022-11-24T09:52:40.543Z,4.70
2022-11-24T09:55:51.751Z,4.70
2022-11-24T09:58:18.517Z,4.70
2022-11-24T10:00:48.452Z,4.70
2022-11-24T10:03:39.201Z,4.70
2022-11-24T10:06:24.523Z,4.70
2022-11-24T10:09:06.276Z,4.80
2022-11-24T10:12:10.183Z,4.80
2022-11-24T10:14:58.001Z,4.80
2022-11-24T10:18:16.174Z,4.90
2022-11-24T10:21:02.053Z,4.90
2022-11-24T10:23:56.556Z,4.90
2022-11-24T10:26:36.778Z,5.00
2022-11-24T10:29:12.760Z,5.10
2022-11-24T10:31:45.401Z,5.10
2022-11-24T10:34:17.895Z,5.20
2022-11-24T10:37:15.898Z,5.20
2022-11-24T10:40:00.768Z,5.20
2022-11-24T10:42:35.331Z,5.20
2022-11-24T10:45:14.042Z,5.20
2022-11-24T10:47:42.278Z,5.30
2022-11-24T10:50:25.750Z,5.30
2022-11-24T10:53:13.740Z,5.40
2022-11-24T10:55:55.840Z,5.40
2022-11-24T10:58:50.801Z,5.40
2022-11-24T11:01:17.561Z,5.40
2022-11-24T11:03:59.908Z,5.60
2022-11-24T11:06:31.914Z,5.60
2022-11-24T11:09:07.763Z,5.50
2022-11-24T11:11:36.272Z,5.50
2022-11-24T11:14:05.986Z,5.40
2022-11-24T11:16:51.858Z,5.60
2022-11-24T11:19:58.417Z,5.60
2022-11-24T11:22:30.624Z,5.50
2022-11-24T11:25:06.428Z,5.50
2022-11-24T11:27:33.265Z,5.40
2022-11-24T11:36:11.238Z,5.40
2022-11-24T11:38:39.761Z,5.30
2022-11-24T11:41:10.799Z,5.30
2022-11-24T11:43:40.772Z,5.40
2022-11-24T11:46:13.132Z,5.30
2022-11-24T11:48:44.123Z,5.30
2022-11-24T11:54:30.560Z,5.40
2022-11-24T11:57:17.638Z,5.40
2022-11-24T11:59:49.519Z,5.40
2022-11-24T12:02:29.663Z,5.40
2022-11-24T12:05:01.838Z,5.40
2022-11-24T12:07:37.856Z,5.40
2022-11-24T12:10:39.189Z,5.40
2022-11-24T12:13:24.085Z,5.40
2022-11-24T12:15:55.380Z,5.40
2022-11-24T12:18:58.027Z,5.30
2022-11-24T12:21:49.507Z,5.30
2022-11-24T12:24:28.259Z,5.30
2022-11-24T12:27:03.341Z,5.40
2022-11-24T12:29:58.135Z,5.30
2022-11-24T12:32:45.091Z,5.20
2022-11-24T12:35:21.482Z,5.20
2022-11-24T12:38:14.437Z,5.20
2022-11-24T12:41:40.262Z,5.20
2022-11-24T12:44:04.426Z,5.20
2022-11-24T12:46:43.160Z,5.20
2022-11-24T12:49:25.116Z,5.30
2022-11-24T12:51:59.655Z,5.30
2022-11-24T12:54:40.551Z,5.30
2022-11-24T12:57:19.223Z,5.30
2022-11-24T13:00:15.198Z,5.40
2022-11-24T13:03:14.297Z,5.40
2022-11-24T13:05:50.590Z,5.40
2022-11-24T13:08:17.538Z,5.40
2022-11-24T13:10:55.783Z,5.40
2022-11-24T13:13:28.069Z,5.40
2022-11-24T13:16:34.669Z,5.40
2022-11-24T13:18:52.194Z,5.40
2022-11-24T13:21:28.326Z,5.40
2022-11-24T13:24:18.576Z,5.50
2022-11-24T13:26:53.459Z,5.40
2022-11-24T13:29:32.227Z,5.40
2022-11-24T13:32:05.004Z,5.40
2022-11-24T13:34:40.868Z,5.40
2022-11-24T13:37:31.542Z,5.40
2022-11-24T13:40:14.516Z,5.30
2022-11-24T13:43:10.807Z,5.40
2022-11-24T13:45:41.188Z,5.40
2022-11-24T13:48:21.424Z,5.30
2022-11-24T13:50:52.163Z,5.30
2022-11-24T13:53:37.679Z,5.30
2022-11-24T13:56:13.673Z,5.30
2022-11-24T13:58:55.294Z,5.30
2022-11-24T14:01:42.395Z,5.20
2022-11-24T14:04:32.520Z,5.20
2022-11-24T14:07:08.007Z,5.20
2022-11-24T14:09:42.795Z,5.20
2022-11-24T14:12:22.592Z,5.10
2022-11-24T14:14:53.837Z,5.10
2022-11-24T14:17:25.827Z,5.10
2022-11-24T14:19:54.855Z,5.10
2022-11-24T14:22:33.007Z,5.10
2022-11-24T14:25:01.933Z,5.10
2022-11-24T14:27:38.421Z,5.00
2022-11-24T14:30:11.361Z,5.00
2022-11-24T14:32:38.203Z,5.00
2022-11-24T14:35:29.521Z,5.00
2022-11-24T14:37:56.406Z,5.00
2022-11-24T14:40:43.910Z,5.00
2022-11-24T14:43:30.336Z,5.00
2022-11-24T14:46:06.739Z,5.00
2022-11-24T14:48:37.910Z,5.00
2022-11-24T14:51:10.739Z,4.90
2022-11-24T14:53:46.877Z,4.90
2022-11-24T14:56:35.362Z,5.00
2022-11-24T14:59:02.369Z,4.90
2022-11-24T15:01:29.153Z,5.00
2022-11-24T15:04:38.833Z,4.90
2022-11-24T15:07:13.897Z,4.80
2022-11-24T15:09:58.517Z,4.80
2022-11-24T15:12:32.006Z,4.80
2022-11-24T15:15:04.157Z,4.80
2022-11-24T15:17:31.465Z,4.80
2022-11-24T15:20:09.649Z,4.80
2022-11-24T15:22:44.530Z,4.80
2022-11-24T15:25:28.383Z,4.90
2022-11-24T15:27:55.472Z,4.90
2022-11-24T15:30:22.534Z,4.80
2022-11-24T15:32:59.452Z,4.70
2022-11-24T15:35:30.195Z,4.70
2022-11-24T15:37:56.996Z,4.70
2022-11-24T15:40:24.567Z,4.70
2022-11-24T15:42:53.900Z,4.60
2022-11-24T15:45:22.210Z,4.60
2022-11-24T15:47:49.067Z,4.60
2022-11-24T15:50:16.304Z,4.60
2022-11-24T15:52:44.083Z,4.60
2022-11-24T15:55:21.998Z,4.50
2022-11-24T15:57:49.264Z,4.60
2022-11-24T16:00:21.917Z,4.50
2022-11-24T16:02:49.505Z,4.50
2022-11-24T16:05:17.664Z,4.50
2022-11-24T16:07:44.893Z,4.50
2022-11-24T16:10:28.242Z,4.40
2022-11-24T16:12:55.092Z,4.40
2022-11-24T16:15:21.860Z,4.30
2022-11-24T16:17:48.801Z,4.30
2022-11-24T16:20:16.117Z,4.30
2022-11-24T16:22:42.920Z,4.40
2022-11-24T16:25:10.834Z,4.40
2022-11-24T16:27:38.450Z,4.30
2022-11-24T16:30:06.568Z,4.30
2022-11-24T16:32:33.995Z,4.30
2022-11-24T16:35:01.166Z,4.40
2022-11-24T16:37:28.184Z,4.40
2022-11-24T16:39:55.029Z,4.40
2022-11-24T16:42:21.942Z,4.30
2022-11-24T16:44:49.027Z,4.30
2022-11-24T16:47:16.133Z,4.30
2022-11-24T16:49:42.961Z,4.30
2022-11-24T16:52:09.826Z,4.20
2022-11-24T16:54:36.928Z,4.20
2022-11-24T16:57:03.977Z,4.10
2022-11-24T16:59:30.816Z,4.20
2022-11-24T17:01:57.662Z,4.20
2022-11-24T17:04:25.347Z,4.20
2022-11-24T17:06:52.402Z,4.30
2022-11-24T17:09:19.472Z,4.30
2022-11-24T17:11:49.584Z,4.30
2022-11-24T17:14:16.800Z,4.30
2022-11-24T17:16:44.058Z,4.30
2022-11-24T17:19:10.925Z,4.30
2022-11-24T17:21:38.136Z,4.20
2022-11-24T17:24:06.771Z,4.40
2022-11-24T17:26:34.984Z,4.20
2022-11-24T17:29:02.307Z,4.30
2022-11-24T17:31:31.344Z,4.40
2022-11-24T17:34:00.005Z,4.20
2022-11-24T17:36:28.039Z,4.30
2022-11-24T17:38:55.173Z,4.30
2022-11-24T17:41:23.422Z,4.20
2022-11-24T17:43:51.243Z,4.20
2022-11-24T17:46:18.609Z,4.20
2022-11-24T17:48:46.254Z,4.20
2022-11-24T17:51:16.267Z,4.30
2022-11-24T17:53:44.888Z,4.30
2022-11-24T17:56:14.691Z,4.10
2022-11-24T17:58:43.250Z,4.30
2022-11-24T18:01:12.218Z,4.30
2022-11-24T18:03:40.184Z,4.20
2022-11-24T18:06:12.453Z,4.20
2022-11-24T18:08:41.999Z,4.20
2022-11-24T18:11:10.663Z,4.10
2022-11-24T18:13:56.741Z,4.20
2022-11-24T18:16:26.188Z,4.00
2022-11-24T18:19:07.420Z,3.90
2022-11-24T18:21:38.876Z,4.00
2022-11-24T18:24:07.140Z,3.90
2022-11-24T18:26:33.966Z,3.90
2022-11-24T18:29:01.182Z,3.90
2022-11-24T18:31:28.653Z,4.00
2022-11-24T18:33:55.883Z,4.10
2022-11-24T18:36:28.385Z,4.10
2022-11-24T18:38:57.660Z,4.10
2022-11-24T18:41:24.729Z,4.30
2022-11-24T18:43:51.947Z,4.10
2022-11-24T18:46:19.463Z,4.10
2022-11-24T18:48:47.170Z,4.10
2022-11-24T18:51:15.041Z,4.00
2022-11-24T18:53:46.699Z,4.00
2022-11-24T18:56:16.690Z,4.20
2022-11-24T18:58:45.243Z,4.10
2022-11-24T19:01:14.912Z,4.20
2022-11-24T19:06:33.981Z,4.00
2022-11-24T19:09:07.788Z,4.00
2022-11-24T19:11:37.594Z,4.10
2022-11-24T19:14:06.575Z,4.00
2022-11-24T19:16:36.204Z,3.90
2022-11-24T19:19:04.517Z,3.90
2022-11-24T19:21:33.580Z,3.90
2022-11-24T19:24:05.310Z,3.90
2022-11-24T19:26:34.637Z,3.80
2022-11-24T19:29:01.925Z,3.90
2022-11-24T19:31:29.300Z,3.90
2022-11-24T19:33:56.912Z,3.80
2022-11-24T19:36:24.395Z,4.00
2022-11-24T19:38:56.555Z,3.90
2022-11-24T19:41:29.335Z,3.80
2022-11-24T19:43:56.953Z,3.80
2022-11-24T19:46:25.862Z,3.80
2022-11-24T19:48:54.112Z,3.90
2022-11-24T19:51:46.716Z,3.90
2022-11-24T19:54:13.553Z,3.80
2022-11-24T19:56:40.848Z,3.80
2022-11-24T19:59:08.234Z,3.80
2022-11-24T20:01:37.924Z,3.90
2022-11-24T20:04:10.528Z,3.90
2022-11-24T20:06:40.397Z,3.90
2022-11-24T20:09:11.096Z,3.90
2022-11-24T20:11:39.296Z,3.80
2022-11-24T20:14:08.624Z,3.80
2022-11-24T20:16:35.679Z,3.70
2022-11-24T20:19:06.604Z,3.80
2022-11-24T20:21:37.911Z,3.80
2022-11-24T20:24:08.929Z,3.90
2022-11-24T20:26:48.594Z,3.80
2022-11-24T20:29:16.794Z,3.70
2022-11-24T20:31:47.729Z,4.00
2022-11-24T20:34:15.615Z,3.80
2022-11-24T20:36:45.406Z,3.70
2022-11-24T20:39:22.624Z,3.80
2022-11-24T20:41:49.947Z,3.60
2022-11-24T20:44:19.339Z,3.70
2022-11-24T20:46:46.755Z,3.70
2022-11-24T20:49:17.549Z,3.70
2022-11-24T20:51:45.159Z,3.80
2022-11-24T20:54:13.300Z,3.80
2022-11-24T20:56:42.973Z,3.70
2022-11-24T20:59:15.623Z,3.60
2022-11-24T21:01:45.534Z,3.70
2022-11-24T21:04:23.045Z,3.70
2022-11-24T21:06:50.086Z,3.70
2022-11-24T21:09:21.028Z,3.70
2022-11-24T21:11:48.272Z,3.60
2022-11-24T21:14:15.123Z,3.70
2022-11-24T21:16:42.838Z,3.70
2022-11-24T21:19:16.216Z,3.70
2022-11-24T21:21:43.421Z,3.80
2022-11-24T21:24:15.783Z,3.70
2022-11-24T21:26:45.314Z,3.70
2022-11-24T21:29:13.401Z,3.70
2022-11-24T21:31:40.423Z,3.60
2022-11-24T21:34:08.555Z,3.40
2022-11-24T21:36:36.134Z,3.60
2022-11-24T21:39:06.312Z,3.70
2022-11-24T21:41:33.770Z,3.60
2022-11-24T21:44:01.074Z,3.70
2022-11-24T21:46:29.123Z,3.60
2022-11-24T21:48:55.999Z,3.80
2022-11-24T21:51:22.779Z,3.70
2022-11-24T21:53:49.641Z,3.70
2022-11-24T21:56:18.995Z,3.80
2022-11-24T21:58:54.705Z,3.80
2022-11-24T22:01:24.248Z,3.90
2022-11-24T22:03:51.435Z,3.90
2022-11-24T22:06:19.425Z,3.90
2022-11-24T22:08:47.749Z,3.90
2022-11-24T22:11:19.829Z,3.70
2022-11-24T22:13:46.914Z,3.90
2022-11-24T22:16:16.487Z,3.80
2022-11-24T22:18:44.709Z,3.80
2022-11-24T22:21:16.809Z,3.80
2022-11-24T22:23:44.842Z,3.90
2022-11-24T22:26:16.941Z,3.90
2022-11-24T22:28:44.900Z,4.00
2022-11-24T22:31:20.685Z,3.90
2022-11-24T22:33:48.361Z,3.90
2022-11-24T22:36:16.467Z,3.80
2022-11-24T22:38:43.593Z,3.60
2022-11-24T22:41:19.609Z,3.60
2022-11-24T22:43:46.564Z,3.60
2022-11-24T22:46:18.612Z,3.60
2022-11-24T22:48:47.003Z,3.60
2022-11-24T22:51:19.539Z,3.60
2022-11-24T22:53:57.085Z,3.70
2022-11-24T22:56:24.719Z,3.70
2022-11-24T22:58:51.600Z,3.60
2022-11-24T23:01:21.216Z,3.50
2022-11-24T23:03:49.241Z,3.50
2022-11-24T23:06:18.802Z,3.40
2022-11-24T23:08:45.986Z,3.50
2022-11-24T23:11:15.685Z,3.60
2022-11-24T23:13:43.638Z,3.50
2022-11-24T23:16:16.248Z,3.50
2022-11-24T23:18:44.614Z,3.50
2022-11-24T23:21:13.325Z,3.50
2022-11-24T23:23:40.810Z,3.50
2022-11-24T23:26:16.883Z,3.50
2022-11-24T23:28:43.674Z,3.40
2022-11-24T23:31:13.831Z,3.50
2022-11-24T23:33:41.151Z,3.50
2022-11-24T23:36:13.234Z,3.50
2022-11-24T23:38:40.715Z,3.60
2022-11-24T23:41:10.403Z,3.50
2022-11-24T23:43:38.600Z,3.40
2022-11-24T23:46:07.959Z,3.40
2022-11-24T23:48:35.485Z,3.40
2022-11-24T23:51:16.271Z,3.30
2022-11-24T23:53:43.918Z,3.30
2022-11-24T23:56:16.125Z,3.40
2022-11-24T23:58:43.035Z,3.40
